Home > Products > Valid Products > MTR

000
SAUS43 KDLH 260957
MTRGNA
METAR KGNA 260956Z AUTO 34007KT M07/M13 A3012 RMK AO1 SLP216
T10671133





000
SAUS43 KDLH 260857
MTRGNA
METAR KGNA 260856Z AUTO 34007KT M07/M14 A3013 RMK AO1 SLP219
T10721139 53015





000
SAUS43 KDLH 260757
MTRGNA
METAR KGNA 260756Z AUTO 34007KT M07/M14 A3011 RMK AO1 SLP213
T10721144





000
SAUS43 KDLH 260657
MTRGNA
METAR KGNA 260656Z AUTO 34006KT M07/M15 A3010 RMK AO1 SLP209
T10721150





000
SAUS43 KDLH 260557
MTRGNA
METAR KGNA 260556Z AUTO 34007KT M08/M16 A3008 RMK AO1 SLP204
T10781156 11056 21078 410331144 51014





000
SAUS43 KDLH 260457
MTRGNA
METAR KGNA 260456Z AUTO 34007KT M07/M16 A3007 RMK AO1 SLP201
T10721156





000
SAUS43 KDLH 260357
MTRGNA
METAR KGNA 260356Z AUTO 34008KT M07/M15 A3006 RMK AO1 SLP198
T10671150





000
SAUS43 KDLH 260357
MTRGNA
METAR KGNA 260356Z AUTO 34008KT M07/M15 A3006 RMK AO1 SLP198
T10671150





000
SAUS43 KDLH 260257
MTRGNA
METAR KGNA 260256Z AUTO 32008KT M07/M14 A3004 RMK AO1 SLP191
T10671139 53011





000
SAUS43 KDLH 260157
MTRGNA
METAR KGNA 260156Z AUTO 32005KT M06/M12 A3003 RMK AO1 SLP188
T10611117





000
SAUS43 KDLH 260057
MTRGNA
METAR KGNA 260056Z AUTO 32005KT M06/M12 A3002 RMK AO1 SLP185
T10611122





000
SAUS43 KDLH 252357
MTRGNA
METAR KGNA 252356Z AUTO 32005KT M07/M13 A3001 RMK AO1 SLP181
T10671128 11033 21067 51009





000
SAUS43 KDLH 252257
MTRGNA
METAR KGNA 252256Z AUTO 31004KT M06/M11 A3001 RMK AO1 SLP180
T10611106





000
SAUS43 KDLH 252157
MTRGNA
METAR KGNA 252156Z AUTO 23011KT M03/M08 A2999 RMK AO1 SLP173
T10331083





000
SAUS43 KDLH 252157
MTRGNA
METAR KGNA 252156Z AUTO 23011KT M03/M08 A2999 RMK AO1 SLP173
T10331083





000
SAUS43 KDLH 252057
MTRGNA
METAR KGNA 252056Z AUTO 22009KT M04/M09 A2998 RMK AO1 SLP170
T10391094 53002





000
SAUS43 KDLH 251957
MTRGNA
METAR KGNA 251956Z AUTO 22009KT M04/M11 A2996 RMK AO1 SLP164
T10441106





000
SAUS43 KDLH 251857
MTRGNA
METAR KGNA 251856Z AUTO 24007KT M04/M11 A2997 RMK AO1 SLP165
T10441111





000
SAUS43 KDLH 251757
MTRGNA
METAR KGNA 251756Z AUTO 21012KT M06/M11 A2997 RMK AO1 SLP168
T10611106 11056 21144 50004





000
SAUS43 KDLH 251657
MTRGNA
METAR KGNA 251656Z AUTO 23009KT M07/M12 A2998 RMK AO1 SLP171
T10671117





000
SAUS43 KDLH 251657
MTRGNA
METAR KGNA 251656Z AUTO 23009KT M07/M12 A2998 RMK AO1 SLP171
T10671117





000
SAUS43 KDLH 251557
MTRGNA
METAR KGNA 251556Z AUTO VRB04KT M09/M14 A2998 RMK AO1 SLP169
T10891139





000
SAUS43 KDLH 251457
MTRGNA
METAR KGNA 251456Z AUTO 25003KT M09/M14 A2996 RMK AO1 SLP165
T10941144 51021





000
SAUS43 KDLH 251357
MTRGNA
METAR KGNA 251356Z AUTO 31003KT M14/M17 A2995 RMK AO1 SLP162
T11391167





000
SAUS43 KDLH 251257
MTRGNA
METAR KGNA 251256Z AUTO 02003KT M13/M16 A2992 RMK AO1 SLP152
T11331156





000
SAUS43 KDLH 251157
MTRGNA
METAR KGNA 251156Z AUTO VRB04KT M11/M14 A2990 RMK AO1 SLP144 70009
T11061144 11072 21106 51041





000
SAUS43 KDLH 251057
MTRGNA
METAR KGNA 251056Z AUTO 00000KT M10/M15 A2988 RMK AO1 SLP136
T11001150





000
SAUS43 KDLH 251057
MTRGNA
METAR KGNA 251056Z AUTO 00000KT M10/M15 A2988 RMK AO1 SLP136
T11001150





000
SAUS43 KDLH 250958
MTRGNA
METAR KGNA 250956Z AUTO 34011G32KT 310V060 M11/M15 A2983 RMK AO1 PK
WND 34040/0940 PRESRR SLP120 T11061150





000
SAUS43 KDLH 250857
MTRGNA
METAR KGNA 250856Z AUTO 34022G37KT M10/M14 A2978 RMK AO1 PK WND
33037/0834 SLP101 T11001144 50014





000
SAUS43 KDLH 250757
MTRGNA
METAR KGNA 250756Z AUTO M09/M14 A2979 RMK AO1 SLP105 T10941144





000
SAUS43 KDLH 250657
MTRGNA
METAR KGNA 250656Z AUTO 33008G25KT 290V360 M09/M14 A2978 RMK AO1
SLP103 T10891139





000
SAUS43 KDLH 250557
MTRGNA
METAR KGNA 250556Z AUTO 33012G30KT 270V030 M08/M14 A2974 RMK AO1 PK
WND 33030/0543 PRESRR SLP086 T10831139 11061 21083 400501083 50048





000
SAUS43 KDLH 250457
MTRGNA
METAR KGNA 250456Z AUTO VRB06G19KT M08/M13 A2974 RMK AO1 PK WND
34033/0417 SLP087 T10781133





000
SAUS43 KDLH 250357
MTRGNA
METAR KGNA 250356Z AUTO 35014G32KT M07/M13 A2966 RMK AO1 PK WND
35045/0309 PRESRR SLP060 T10721128





000
SAUS43 KDLH 250357
MTRGNA
METAR KGNA 250356Z AUTO 35014G32KT M07/M13 A2966 RMK AO1 PK WND
35045/0309 PRESRR SLP060 T10721128





000
SAUS43 KDLH 250257
MTRGNA
METAR KGNA 250256Z AUTO 34027G40KT M07/M13 A2959 RMK AO1 PK WND
34046/0207 SLP037 T10721128 51037





000
SAUS43 KDLH 250157
MTRGNA
METAR KGNA 250156Z AUTO 34020G43KT M07/M12 A2957 RMK AO1 PK WND
34045/0124 SLP028 T10671122





000
SAUS43 KDLH 250057
MTRGNA
METAR KGNA 250056Z AUTO 34022G43KT M06/M11 A2953 RMK AO1 PK WND
34043/0046 SLP012 T10611111





000
SAUS43 KDLH 242357
MTRGNA
METAR KGNA 242356Z AUTO 34025G39KT M06/M11 A2948 RMK AO1 PK WND
34043/2315 SLP997 60001 T10611111 11056 21061 51033





000
SAUS43 KDLH 242257
MTRGNA
METAR KGNA 242256Z AUTO 34021G38KT M06/M11 A2945 RMK AO1 PK WND
35038/2243 SLP984 T10611111





000
SAUS43 KDLH 242157
MTRGNA
METAR KGNA 242156Z AUTO 34020G37KT M06/M11 A2942 RMK AO1 PK WND
35037/2135 SLP975 T10611106





000
SAUS43 KDLH 242057
MTRGNA
METAR KGNA 242056Z AUTO 34018G34KT M06/M11 A2939 RMK AO1 PK WND
35034/2053 SLP962 P0001 60001 T10611111 51064





000
SAUS43 KDLH 241957
MTRGNA
METAR KGNA 241956Z AUTO 18008KT M06/M10 A2937 RMK AO1 PK WND
34050/1857 SLP956 T10561100





000
SAUS43 KDLH 241857
MTRGNA
METAR KGNA 241856Z AUTO 34025G52KT M06/M11 A2922 RMK AO1 PK WND
34052/1852 SLP906 T10561106





000
SAUS43 KDLH 241757
MTRGNA
METAR KGNA 241756Z AUTO 34025G45KT M06/M10 A2919 RMK AO1 PK WND
35045/1756 SLP896 60008 T10561100 10006 21056 51018





000
SAUS43 KDLH 241657
MTRGNA
METAR KGNA 241656Z AUTO 34018G44KT M05/M09 A2919 RMK AO1 PK WND
34046/1604 SLP894 T10501094





000
SAUS43 KDLH 241557
MTRGNA
METAR KGNA 241556Z AUTO 34021G41KT M04/M08 A2917 RMK AO1 PK WND
35048/1527 SLP886 T10391083





000
SAUS43 KDLH 241457
MTRGNA
METAR KGNA 241456Z AUTO 34023G38KT M03/M06 A2914 RMK AO1 PK WND
34042/1445 SLP877 60008 T10281061 53009





000
SAUS43 KDLH 241357
MTRGNA
METAR KGNA 241356Z AUTO 34019G40KT M02/M05 A2913 RMK AO1 PK WND
34041/1321 SLP873 P0002 T10171050





000
SAUS43 KDLH 241257
MTRGNA
METAR KGNA 241256Z AUTO 35017G33KT M01/M03 A2912 RMK AO1 PK WND
34041/1223 SLP870 P0006 T10061033





000
SAUS43 KDLH 241157
MTRGNA
METAR KGNA 241156Z AUTO 34022G32KT 01/M02 A2911 RMK AO1 PK WND
36034/1100 SLP867 P0006 60010 70012 T00061017 10050 20006 56006





000
SAUS43 KDLH 241057
MTRGNA
METAR KGNA 241056Z AUTO 34018G29KT 02/00 A2912 RMK AO1 PK WND
34032/1015 SLP867 P0002 T00220000





000
SAUS43 KDLH 240957
MTRGNA
METAR KGNA 240956Z AUTO 34016G29KT 03/01 A2912 RMK AO1 PK WND
34032/0931 SLP866 P0002 T00330011





000
SAUS43 KDLH 240857
MTRGNA
METAR KGNA 240856Z AUTO 35016G26KT 04/01 A2913 RMK AO1 PK WND
34031/0812 SLP870 T00390011 56034





000
SAUS43 KDLH 240757
MTRGNA
METAR KGNA 240756Z AUTO 34014G25KT 05/02 A2915 RMK AO1 SLP877
T00500017





000
SAUS43 KDLH 240657
MTRGNA
METAR KGNA 240656Z AUTO 34012G20KT 04/02 A2919 RMK AO1 SLP890
T00440017





000
SAUS43 KDLH 240557
MTRGNA
METAR KGNA 240556Z AUTO 35011G19KT 05/02 A2923 RMK AO1 SLP905
T00500017 10050 20033 400500028 56027





000
SAUS43 KDLH 240457
MTRGNA
METAR KGNA 240456Z AUTO 35007G21KT 05/02 A2927 RMK AO1 SLP916
T00500022





000
SAUS43 KDLH 240357
MTRGNA
METAR KGNA 240356Z AUTO 34009G17KT 05/02 A2928 RMK AO1 SLP921
T00500022





000
SAUS43 KDLH 240257
MTRGNA
METAR KGNA 240256Z AUTO VRB04KT 04/03 A2932 RMK AO1 SLP934 T00390028
58016





000
SAUS43 KDLH 240157
MTRGNA
METAR KGNA 240156Z AUTO 00000KT 03/03 A2934 RMK AO1 SLP944 T00330028





000
SAUS43 KDLH 240157
MTRGNA
METAR KGNA 240156Z AUTO 00000KT 03/03 A2934 RMK AO1 SLP944 T00330028





000
SAUS43 KDLH 240057
MTRGNA
METAR KGNA 240056Z AUTO 00000KT 03/03 A2934 RMK AO1 SLP944 T00330028





000
SAUS43 KDLH 232357
MTRGNA
METAR KGNA 232356Z AUTO 00000KT 04/03 A2936 RMK AO1 SLP950 T00390033
10050 20039 56010





000
SAUS43 KDLH 232257
MTRGNA
METAR KGNA 232256Z AUTO 07005KT 04/04 A2938 RMK AO1 SLP956 T00440039





000
SAUS43 KDLH 232157
MTRGNA
METAR KGNA 232156Z AUTO 00000KT 05/04 A2937 RMK AO1 SLP953 T00500044





000
SAUS43 KDLH 232157
MTRGNA
METAR KGNA 232156Z AUTO 00000KT 05/04 A2937 RMK AO1 SLP953 T00500044





000
SAUS43 KDLH 232057
MTRGNA
METAR KGNA 232056Z AUTO 05005KT 04/04 A2939 RMK AO1 SLP960 T00440039
56009





000
SAUS43 KDLH 231957
MTRGNA
METAR KGNA 231956Z AUTO 06003KT 05/04 A2940 RMK AO1 SLP962 T00500044





000
SAUS43 KDLH 231857
MTRGNA
METAR KGNA 231856Z AUTO 08004KT 04/04 A2940 RMK AO1 SLP963 T00440039





000
SAUS43 KDLH 231757
MTRGNA
METAR KGNA 231756Z AUTO 00000KT 05/04 A2942 RMK AO1 SLP968 60002
T00500044 10050 20028 58012





000
SAUS43 KDLH 231657
MTRGNA
METAR KGNA 231656Z AUTO 00000KT 04/03 A2945 RMK AO1 SLP978 T00440033





000
SAUS43 KDLH 231557
MTRGNA
METAR KGNA 231556Z AUTO 07005KT 04/03 A2945 RMK AO1 SLP978 T00390033





000
SAUS43 KDLH 231457
MTRGNA
METAR KGNA 231456Z AUTO 05004KT 04/03 A2945 RMK AO1 SLP982 60002
T00390028 55007





000
SAUS43 KDLH 231357
MTRGNA
METAR KGNA 231356Z AUTO 05004KT 03/02 A2944 RMK AO1 SLP978 P0001
T00330022





000
SAUS43 KDLH 231257
MTRGNA
METAR KGNA 231256Z AUTO 05007KT 03/02 A2946 RMK AO1 SLP984 P0001
T00280022





000
SAUS43 KDLH 231157
MTRGNA
METAR KGNA 231156Z AUTO 04005KT 03/02 A2947 RMK AO1 SLP989 P0001
60002 70002 T00280017 10033 20028 56019





000
SAUS43 KDLH 231057
MTRGNA
METAR KGNA 231056Z AUTO 06007KT 03/02 A2949 RMK AO1 SLP994 P0001
T00280022





    US Dept of Commerce
    National Oceanic and Atmospheric Administration
    National Weather Service
    1325 East West Highway
    Silver Spring, MD 20910
    Page Author: NWS Internet Services Team
Disclaimer
Information Quality
Credits
Glossary
Privacy Policy
Freedom of Information Act (FOIA)
About Us
Career Opportunities